createdAt,value
2019-02-16T00:00:37.729Z,10.03
2019-02-16T00:03:07.017Z,10.17
2019-02-16T00:05:36.429Z,9.97
2019-02-16T00:08:05.748Z,10.17
2019-02-16T00:10:35.040Z,9.97
2019-02-16T00:13:05.280Z,9.93
2019-02-16T00:15:34.646Z,9.77
2019-02-16T00:18:04.159Z,9.17
2019-02-16T00:20:33.422Z,9.43
2019-02-16T00:23:02.865Z,9.30
2019-02-16T00:25:32.139Z,9.20
2019-02-16T00:28:01.401Z,9.47
2019-02-16T00:30:30.698Z,9.73
2019-02-16T00:32:59.971Z,10.80
2019-02-16T00:35:29.325Z,9.60
2019-02-16T00:37:58.585Z,7.93
2019-02-16T00:40:27.787Z,8.83
2019-02-16T00:42:57.141Z,9.53
2019-02-16T00:45:26.567Z,8.40
2019-02-16T00:47:55.830Z,9.40
2019-02-16T00:50:25.137Z,9.13
2019-02-16T00:52:54.438Z,11.33
2019-02-16T00:55:23.750Z,10.27
2019-02-16T00:57:53.147Z,8.73
2019-02-16T01:00:22.422Z,11.10
2019-02-16T01:02:51.762Z,10.20
2019-02-16T01:05:20.963Z,10.27
2019-02-16T01:07:50.318Z,10.63
2019-02-16T01:10:19.645Z,11.07
2019-02-16T01:12:49.120Z,10.57
2019-02-16T01:15:18.385Z,10.23
2019-02-16T01:17:47.677Z,10.13
2019-02-16T01:20:16.877Z,10.67
2019-02-16T01:22:46.548Z,10.07
2019-02-16T01:25:15.840Z,10.57
2019-02-16T01:27:45.116Z,10.67
2019-02-16T01:30:14.426Z,10.50
2019-02-16T01:32:43.735Z,11.60
2019-02-16T01:35:13.056Z,10.30
2019-02-16T01:37:42.372Z,9.10
2019-02-16T01:40:13.041Z,10.20
2019-02-16T01:42:42.336Z,9.87
2019-02-16T01:45:12.034Z,9.00
2019-02-16T01:47:41.366Z,9.87
2019-02-16T01:50:10.750Z,9.23
2019-02-16T01:52:40.039Z,8.67
2019-02-16T01:55:10.814Z,9.27
2019-02-16T01:57:40.258Z,9.13
2019-02-16T02:00:10.992Z,8.73
2019-02-16T02:02:40.313Z,9.37
2019-02-16T02:05:09.711Z,8.37
2019-02-16T02:07:39.074Z,8.27
2019-02-16T02:10:09.462Z,8.70
2019-02-16T02:12:38.750Z,8.70
2019-02-16T02:15:08.895Z,8.43
2019-02-16T02:17:38.180Z,9.97
2019-02-16T02:20:07.911Z,8.97
2019-02-16T02:22:37.327Z,9.33
2019-02-16T02:25:08.567Z,9.10
2019-02-16T02:27:37.926Z,8.73
2019-02-16T02:30:08.197Z,7.43
2019-02-16T02:32:37.478Z,8.60
2019-02-16T02:35:07.639Z,9.13
2019-02-16T02:37:36.975Z,9.07
2019-02-16T02:40:06.548Z,8.43
2019-02-16T02:42:35.827Z,8.00
2019-02-16T02:45:07.318Z,8.30
2019-02-16T02:47:55.780Z,8.50
2019-02-16T02:50:25.236Z,8.50
2019-02-16T02:52:56.560Z,8.37
2019-02-16T02:55:25.434Z,7.83
2019-02-16T02:57:54.762Z,8.00
2019-02-16T03:00:24.162Z,8.27
2019-02-16T03:02:53.578Z,7.50
2019-02-16T03:05:24.436Z,7.57
2019-02-16T03:07:53.785Z,7.90
2019-02-16T03:10:23.122Z,7.30
2019-02-16T03:12:52.421Z,7.67
2019-02-16T03:15:21.765Z,7.63
2019-02-16T03:17:51.068Z,7.50
2019-02-16T03:20:20.447Z,7.57
2019-02-16T03:23:24.293Z,7.00
2019-02-16T03:26:04.662Z,7.60
2019-02-16T03:28:37.563Z,7.83
2019-02-16T03:31:47.726Z,7.63
2019-02-16T03:34:24.492Z,7.20
2019-02-16T03:37:20.290Z,7.77
2019-02-16T03:39:49.583Z,7.03
2019-02-16T03:42:18.985Z,7.07
2019-02-16T03:44:48.262Z,7.20
2019-02-16T03:47:17.585Z,7.27
2019-02-16T03:49:47.083Z,7.07
2019-02-16T03:52:16.386Z,7.77
2019-02-16T03:54:45.845Z,7.53
2019-02-16T03:57:15.160Z,7.40
2019-02-16T03:59:44.450Z,7.80
2019-02-16T04:02:13.673Z,7.57
2019-02-16T04:04:43.033Z,7.40
2019-02-16T04:07:12.416Z,7.13
2019-02-16T04:09:41.714Z,6.43
2019-02-16T04:12:11.034Z,7.10
2019-02-16T04:14:40.327Z,7.47
2019-02-16T04:17:09.617Z,6.87
2019-02-16T04:19:38.873Z,6.30
2019-02-16T04:22:08.189Z,7.33
2019-02-16T04:24:37.430Z,6.10
2019-02-16T04:27:06.710Z,7.40
2019-02-16T04:29:35.892Z,6.53
2019-02-16T04:32:05.109Z,6.83
2019-02-16T04:34:34.362Z,6.50
2019-02-16T04:37:03.659Z,6.80
2019-02-16T04:39:33.167Z,6.50
2019-02-16T04:42:02.413Z,6.33
2019-02-16T04:44:31.696Z,6.37
2019-02-16T04:47:00.978Z,6.53
2019-02-16T04:49:30.269Z,6.77
2019-02-16T04:51:59.561Z,6.70
2019-02-16T04:54:28.829Z,6.73
2019-02-16T04:56:58.118Z,6.70
2019-02-16T04:59:27.374Z,6.10
2019-02-16T05:01:56.633Z,7.30
2019-02-16T05:04:25.957Z,6.60
2019-02-16T05:06:55.134Z,6.47
2019-02-16T05:09:24.424Z,6.30
2019-02-16T05:11:53.689Z,6.30
2019-02-16T05:14:22.986Z,6.57
2019-02-16T05:16:52.391Z,7.20
2019-02-16T05:19:21.682Z,6.70
2019-02-16T05:21:50.960Z,6.47
2019-02-16T05:24:20.250Z,7.47
2019-02-16T05:26:49.521Z,6.90
2019-02-16T05:29:18.870Z,7.17
2019-02-16T05:31:48.134Z,6.77
2019-02-16T05:34:17.494Z,6.17
2019-02-16T05:36:46.754Z,5.80
2019-02-16T05:39:16.029Z,5.77
2019-02-16T05:41:45.301Z,6.13
2019-02-16T05:44:14.579Z,6.03
2019-02-16T05:46:43.847Z,5.60
2019-02-16T05:49:13.230Z,6.60
2019-02-16T05:51:42.604Z,6.27
2019-02-16T05:54:11.870Z,5.40
2019-02-16T05:56:41.165Z,7.43
2019-02-16T05:59:10.386Z,6.63
2019-02-16T06:01:39.749Z,7.37
2019-02-16T06:04:09.031Z,6.67
2019-02-16T06:06:38.286Z,6.63
2019-02-16T06:09:07.649Z,6.83
2019-02-16T06:11:36.919Z,6.60
2019-02-16T06:14:06.285Z,6.77
2019-02-16T06:16:35.550Z,7.17
2019-02-16T06:19:04.897Z,8.30
2019-02-16T06:21:34.163Z,8.53
2019-02-16T06:24:03.465Z,7.33
2019-02-16T06:26:32.764Z,8.03
2019-02-16T06:29:02.022Z,8.67
2019-02-16T06:31:31.362Z,9.07
2019-02-16T06:34:00.649Z,8.47
2019-02-16T06:36:33.982Z,8.03
2019-02-16T06:39:04.915Z,7.40
2019-02-16T06:41:34.219Z,7.30
2019-02-16T06:44:03.618Z,7.23
2019-02-16T06:46:32.965Z,7.83
2019-02-16T06:49:02.289Z,6.93
2019-02-16T06:51:31.566Z,7.63
2019-02-16T06:54:01.041Z,6.40
2019-02-16T06:56:34.982Z,8.43
2019-02-16T06:59:04.364Z,7.80
2019-02-16T07:01:33.789Z,7.60
2019-02-16T07:04:03.145Z,7.70
2019-02-16T07:06:32.396Z,7.80
2019-02-16T07:09:01.854Z,8.10
2019-02-16T07:11:31.233Z,9.53
2019-02-16T07:14:00.532Z,10.23
2019-02-16T07:16:45.641Z,7.83
2019-02-16T07:19:36.707Z,8.00
2019-02-16T07:22:07.613Z,7.07
2019-02-16T07:24:36.933Z,6.67
2019-02-16T07:27:06.292Z,6.80
2019-02-16T07:29:35.766Z,7.30
2019-02-16T07:32:05.024Z,9.57
2019-02-16T07:34:34.366Z,14.83
2019-02-16T07:37:03.687Z,10.83
2019-02-16T07:39:32.959Z,7.90
2019-02-16T07:42:02.391Z,8.57
2019-02-16T07:44:38.160Z,7.83
2019-02-16T07:47:39.184Z,8.50
2019-02-16T07:50:30.327Z,6.73
2019-02-16T07:53:18.667Z,5.90
2019-02-16T07:55:59.651Z,6.03
2019-02-16T07:58:53.828Z,6.10
2019-02-16T08:01:48.226Z,8.07
2019-02-16T08:04:38.143Z,5.47
2019-02-16T08:07:31.989Z,7.27
2019-02-16T08:10:35.677Z,9.20
2019-02-16T08:13:33.343Z,10.47
2019-02-16T08:16:08.722Z,9.87
2019-02-16T08:19:12.433Z,8.03
2019-02-16T08:21:59.609Z,7.53
2019-02-16T08:24:45.818Z,5.17
2019-02-16T08:27:40.223Z,5.40
2019-02-16T08:30:23.180Z,5.40
2019-02-16T08:33:26.779Z,6.93
2019-02-16T08:36:24.008Z,7.33
2019-02-16T08:39:11.274Z,5.63
2019-02-16T08:42:00.151Z,6.17
2019-02-16T08:45:00.364Z,6.70
2019-02-16T08:48:01.303Z,7.13
2019-02-16T08:51:01.784Z,8.47
2019-02-16T08:53:49.881Z,9.93
2019-02-16T08:56:34.144Z,6.90
2019-02-16T08:59:13.226Z,7.07
2019-02-16T09:02:00.157Z,6.73
2019-02-16T09:04:44.189Z,6.67
2019-02-16T09:07:31.321Z,6.37
2019-02-16T09:10:18.414Z,6.73
2019-02-16T09:13:16.073Z,7.03
2019-02-16T09:16:08.860Z,10.07
2019-02-16T09:19:12.350Z,13.40
2019-02-16T09:21:58.891Z,10.20
2019-02-16T09:24:43.894Z,6.87
2019-02-16T09:27:32.240Z,6.53
2019-02-16T09:30:16.270Z,5.00
2019-02-16T09:32:50.599Z,4.33
2019-02-16T09:35:41.148Z,3.43
2019-02-16T09:38:38.741Z,4.07
2019-02-16T09:41:30.085Z,3.53
2019-02-16T09:44:11.334Z,3.97
2019-02-16T09:47:08.523Z,4.13
2019-02-16T09:50:01.862Z,3.43
2019-02-16T09:52:45.332Z,3.83
2019-02-16T09:55:39.617Z,3.47
2019-02-16T09:58:26.803Z,3.73
2019-02-16T10:01:18.375Z,3.63
2019-02-16T10:03:57.113Z,3.77
2019-02-16T10:06:44.890Z,3.58
2019-02-16T10:09:22.781Z,3.33
2019-02-16T10:12:02.526Z,3.30
2019-02-16T10:14:56.654Z,3.47
2019-02-16T10:17:34.802Z,3.80
2019-02-16T10:20:40.400Z,3.20
2019-02-16T10:23:23.400Z,3.63
2019-02-16T10:26:10.402Z,3.40
2019-02-16T10:28:51.815Z,3.53
2019-02-16T10:31:37.124Z,3.80
2019-02-16T10:34:23.812Z,4.23
2019-02-16T10:37:30.994Z,4.10
2019-02-16T10:40:15.727Z,4.10
2019-02-16T10:42:54.400Z,4.33
2019-02-16T10:45:51.814Z,4.57
2019-02-16T10:48:46.050Z,4.03
2019-02-16T10:51:40.152Z,5.00
2019-02-16T10:54:26.615Z,4.90
2019-02-16T10:57:13.761Z,4.83
2019-02-16T11:00:14.208Z,5.10
2019-02-16T11:03:14.472Z,5.53
2019-02-16T11:05:59.686Z,5.50
2019-02-16T11:08:46.036Z,5.43
2019-02-16T11:11:22.333Z,5.03
2019-02-16T11:14:10.232Z,4.77
2019-02-16T11:16:58.582Z,4.90
2019-02-16T11:20:05.496Z,5.53
2019-02-16T11:22:46.044Z,5.53
2019-02-16T11:25:40.627Z,6.10
2019-02-16T11:28:38.292Z,6.23
2019-02-16T11:31:41.958Z,6.30
2019-02-16T11:34:39.457Z,6.20
2019-02-16T11:37:27.894Z,7.00
2019-02-16T11:40:15.231Z,6.60
2019-02-16T11:42:53.194Z,6.20
2019-02-16T11:45:47.541Z,6.73
2019-02-16T11:48:31.007Z,6.77
2019-02-16T11:51:29.600Z,7.23
2019-02-16T11:54:17.073Z,6.90
2019-02-16T11:56:58.889Z,6.83
2019-02-16T11:59:35.533Z,7.30
2019-02-16T12:02:22.857Z,8.60
2019-02-16T12:05:00.298Z,7.10
2019-02-16T12:07:44.538Z,7.57
2019-02-16T12:10:31.649Z,8.00
2019-02-16T12:13:14.427Z,7.67
2019-02-16T12:15:57.160Z,11.43
2019-02-16T12:18:34.519Z,7.92
2019-02-16T12:21:21.719Z,7.93
2019-02-16T12:24:13.121Z,8.37
2019-02-16T12:26:51.839Z,8.57
2019-02-16T12:29:38.894Z,8.37
2019-02-16T12:32:29.994Z,8.17
2019-02-16T12:35:28.505Z,8.13
2019-02-16T12:38:10.479Z,8.07
2019-02-16T12:41:05.861Z,9.50
2019-02-16T12:43:54.217Z,8.23
2019-02-16T12:46:41.510Z,9.33
2019-02-16T12:49:28.977Z,9.83
2019-02-16T12:52:10.976Z,12.07
2019-02-16T12:54:52.851Z,11.47
2019-02-16T12:57:38.474Z,11.30
2019-02-16T13:00:34.329Z,18.73
2019-02-16T13:03:22.747Z,10.67
2019-02-16T13:06:14.284Z,11.40
2019-02-16T13:09:14.857Z,8.97
2019-02-16T13:11:52.178Z,8.43
2019-02-16T13:14:39.555Z,8.97
2019-02-16T13:17:20.570Z,8.33
2019-02-16T13:20:11.958Z,9.07
2019-02-16T13:22:49.812Z,9.47
2019-02-16T13:25:25.266Z,8.03
2019-02-16T13:28:15.194Z,9.07
2019-02-16T13:31:09.125Z,9.03
2019-02-16T13:33:59.355Z,7.53
2019-02-16T13:36:50.457Z,9.43
2019-02-16T13:39:33.417Z,10.80
2019-02-16T13:42:14.671Z,9.33
2019-02-16T13:45:01.990Z,25.83
2019-02-16T13:47:53.537Z,14.00
2019-02-16T13:50:38.152Z,13.57
2019-02-16T13:53:44.987Z,11.87
2019-02-16T13:56:31.715Z,8.90
2019-02-16T13:59:19.563Z,8.63
2019-02-16T14:02:08.228Z,20.80
2019-02-16T14:04:51.879Z,12.50
2019-02-16T14:07:37.434Z,9.80
2019-02-16T14:10:24.615Z,8.33
2019-02-16T14:13:22.196Z,8.67
2019-02-16T14:16:16.615Z,7.53
2019-02-16T14:18:45.994Z,8.10
2019-02-16T14:21:15.451Z,7.80
2019-02-16T14:23:44.884Z,7.80
2019-02-16T14:26:14.176Z,8.33
2019-02-16T14:28:43.641Z,7.83
2019-02-16T14:31:14.587Z,7.07
2019-02-16T14:33:43.995Z,7.60
2019-02-16T14:36:13.358Z,7.37
2019-02-16T14:38:57.675Z,8.30
2019-02-16T14:41:27.053Z,8.07
2019-02-16T14:43:56.435Z,8.27
2019-02-16T14:46:25.813Z,8.27
2019-02-16T14:48:55.150Z,8.37
2019-02-16T14:51:43.670Z,8.80
2019-02-16T14:54:13.034Z,8.03
2019-02-16T14:56:42.499Z,8.30
2019-02-16T14:59:11.852Z,7.90
2019-02-16T15:01:41.307Z,8.37
2019-02-16T15:04:10.757Z,7.90
2019-02-16T15:06:40.120Z,14.97
2019-02-16T15:09:09.542Z,9.33
2019-02-16T15:11:38.895Z,8.17
2019-02-16T15:14:08.272Z,7.90
2019-02-16T15:16:37.603Z,8.77
2019-02-16T15:19:06.877Z,8.33
2019-02-16T15:21:36.285Z,8.37
2019-02-16T15:24:05.799Z,10.53
2019-02-16T15:26:35.164Z,8.17
2019-02-16T15:29:04.590Z,8.17
2019-02-16T15:31:33.886Z,9.57
2019-02-16T15:34:03.313Z,8.63
2019-02-16T15:36:38.763Z,17.43
2019-02-16T15:39:08.421Z,13.70
2019-02-16T15:41:37.723Z,10.30
2019-02-16T15:44:07.091Z,9.90
2019-02-16T15:46:36.455Z,9.50
2019-02-16T15:49:05.759Z,10.33
2019-02-16T15:51:35.067Z,10.90
2019-02-16T15:54:23.570Z,9.83
2019-02-16T15:56:53.004Z,8.40
2019-02-16T15:59:22.448Z,9.37
2019-02-16T16:01:51.679Z,8.70
2019-02-16T16:04:21.888Z,10.03
2019-02-16T16:06:51.238Z,8.80
2019-02-16T16:09:45.735Z,9.93
2019-02-16T16:12:24.556Z,16.70
2019-02-16T16:15:12.948Z,29.27
2019-02-16T16:17:54.411Z,19.57
2019-02-16T16:20:42.541Z,25.37
2019-02-16T16:23:24.174Z,12.60
2019-02-16T16:26:21.460Z,12.83
2019-02-16T16:29:13.646Z,8.67
2019-02-16T16:31:54.391Z,10.17
2019-02-16T16:34:41.665Z,11.97
2019-02-16T16:37:22.162Z,13.00
2019-02-16T16:40:02.669Z,14.57
2019-02-16T16:42:48.137Z,14.57
2019-02-16T16:45:37.481Z,15.80
2019-02-16T16:48:23.227Z,16.53
2019-02-16T16:51:14.341Z,9.63
2019-02-16T16:54:17.786Z,30.77
2019-02-16T16:57:02.008Z,21.87
2019-02-16T16:59:39.243Z,9.10
2019-02-16T17:02:26.727Z,11.70
2019-02-16T17:05:15.029Z,8.83
2019-02-16T17:07:53.594Z,8.10
2019-02-16T17:10:44.849Z,10.10
2019-02-16T17:13:33.307Z,12.50
2019-02-16T17:16:12.301Z,11.90
2019-02-16T17:19:22.655Z,13.00
2019-02-16T17:22:25.447Z,12.97
2019-02-16T17:25:08.428Z,13.70
2019-02-16T17:27:48.690Z,11.80
2019-02-16T17:30:37.046Z,9.70
2019-02-16T17:33:21.827Z,10.30
2019-02-16T17:36:06.770Z,11.60
2019-02-16T17:39:07.425Z,9.60
2019-02-16T17:41:58.967Z,14.40
2019-02-16T17:45:02.793Z,8.37
2019-02-16T17:47:57.217Z,10.00
2019-02-16T17:50:40.064Z,10.80
2019-02-16T17:53:21.520Z,13.37
2019-02-16T17:56:05.823Z,15.93
2019-02-16T17:58:43.559Z,16.80
2019-02-16T18:01:34.387Z,18.00
2019-02-16T18:04:31.772Z,10.53
2019-02-16T18:07:30.364Z,15.60
2019-02-16T18:10:50.376Z,17.80
2019-02-16T18:13:29.781Z,29.20
2019-02-16T18:16:09.174Z,23.30
2019-02-16T18:19:00.667Z,26.83
2019-02-16T18:21:54.809Z,28.63
2019-02-16T18:24:58.100Z,30.57
2019-02-16T18:28:09.335Z,33.33
2019-02-16T18:30:47.154Z,30.90
2019-02-16T18:33:34.130Z,29.53
2019-02-16T18:36:37.454Z,26.23
2019-02-16T18:39:26.033Z,26.30
2019-02-16T18:45:01.473Z,22.70
2019-02-16T18:47:40.477Z,15.20
2019-02-16T18:50:26.951Z,12.97
2019-02-16T18:53:21.344Z,13.57
2019-02-16T18:55:57.848Z,13.13
2019-02-16T18:58:41.749Z,10.60
2019-02-16T19:01:36.385Z,10.47
2019-02-16T19:04:29.387Z,11.47
2019-02-16T19:07:32.876Z,13.70
2019-02-16T19:10:29.962Z,21.67
2019-02-16T19:13:24.254Z,26.47
2019-02-16T19:16:07.093Z,26.00
2019-02-16T19:18:54.006Z,21.53
2019-02-16T19:21:33.961Z,16.83
2019-02-16T19:24:16.854Z,23.13
2019-02-16T19:27:05.207Z,19.27
2019-02-16T19:30:08.616Z,16.57
2019-02-16T19:32:51.418Z,19.83
2019-02-16T19:35:36.770Z,31.13
2019-02-16T19:38:27.889Z,26.27
2019-02-16T19:41:12.142Z,13.83
2019-02-16T19:43:50.410Z,10.47
2019-02-16T19:46:41.950Z,12.80
2019-02-16T19:49:29.266Z,13.17
2019-02-16T19:52:22.055Z,13.43
2019-02-16T19:55:01.410Z,13.37
2019-02-16T19:57:48.282Z,29.87
2019-02-16T20:00:28.057Z,37.00
2019-02-16T20:03:25.738Z,23.43
2019-02-16T20:06:12.997Z,31.57
2019-02-16T20:09:04.542Z,24.37
2019-02-16T20:11:47.321Z,49.23
2019-02-16T20:14:32.012Z,31.50
2019-02-16T20:17:21.274Z,60.63
2019-02-16T20:20:25.007Z,31.47
2019-02-16T20:23:19.029Z,37.70
2019-02-16T20:26:02.094Z,36.97
2019-02-16T20:28:56.431Z,31.53
2019-02-16T20:31:47.628Z,21.53
2019-02-16T20:34:36.774Z,33.97
2019-02-16T20:37:20.980Z,26.93
2019-02-16T20:40:05.570Z,17.87
2019-02-16T20:43:09.244Z,17.83
2019-02-16T20:46:00.135Z,15.17
2019-02-16T20:48:48.529Z,20.27
2019-02-16T20:51:42.862Z,14.53
2019-02-16T20:54:33.967Z,13.13
2019-02-16T20:57:09.114Z,13.60
2019-02-16T20:59:56.087Z,14.27
2019-02-16T21:02:47.243Z,16.53
2019-02-16T21:05:35.634Z,11.70
2019-02-16T21:08:16.400Z,13.13
2019-02-16T21:11:03.674Z,13.17
2019-02-16T21:13:47.065Z,12.40
2019-02-16T21:16:29.385Z,12.53
2019-02-16T21:19:12.644Z,10.43
2019-02-16T21:21:59.863Z,10.73
2019-02-16T21:24:51.062Z,11.93
2019-02-16T21:27:28.631Z,10.60
2019-02-16T21:30:26.317Z,11.97
2019-02-16T21:33:02.992Z,11.70
2019-02-16T21:35:50.268Z,11.00
2019-02-16T21:38:37.424Z,11.73
2019-02-16T21:41:25.772Z,13.53
2019-02-16T21:44:14.082Z,14.90
2019-02-16T21:47:02.692Z,13.73
2019-02-16T21:49:49.828Z,12.50
2019-02-16T21:52:41.008Z,14.47
2019-02-16T21:55:32.443Z,14.13
2019-02-16T21:58:26.981Z,13.67
2019-02-16T22:01:18.419Z,12.50
2019-02-16T22:04:12.921Z,13.20
2019-02-16T22:07:01.525Z,12.23
2019-02-16T22:09:55.969Z,12.20
2019-02-16T22:12:35.338Z,11.50
2019-02-16T22:15:05.505Z,11.50
2019-02-16T22:17:34.815Z,11.80
2019-02-16T22:20:04.242Z,10.80
2019-02-16T22:22:33.495Z,11.03
2019-02-16T22:25:02.762Z,10.97
2019-02-16T22:27:32.075Z,10.80
2019-02-16T22:30:01.406Z,11.13
2019-02-16T22:32:30.747Z,11.30
2019-02-16T22:35:00.033Z,13.77
2019-02-16T22:37:29.338Z,16.20
2019-02-16T22:39:58.603Z,16.10
2019-02-16T22:42:27.933Z,15.13
2019-02-16T22:44:57.337Z,15.00
2019-02-16T22:47:26.616Z,14.40
2019-02-16T22:49:55.911Z,16.20
2019-02-16T22:52:25.222Z,13.23
2019-02-16T22:54:54.442Z,15.03
2019-02-16T22:57:23.922Z,14.63
2019-02-16T22:59:53.243Z,16.37
2019-02-16T23:02:22.536Z,17.33
2019-02-16T23:04:51.913Z,15.87
2019-02-16T23:07:21.459Z,15.60
2019-02-16T23:09:50.710Z,13.77
2019-02-16T23:12:20.103Z,13.90
2019-02-16T23:14:49.391Z,13.80
2019-02-16T23:17:18.636Z,13.27
2019-02-16T23:19:47.975Z,13.33
2019-02-16T23:22:17.164Z,20.70
2019-02-16T23:24:46.489Z,18.13
2019-02-16T23:27:15.754Z,18.53
2019-02-16T23:29:45.106Z,18.70
2019-02-16T23:32:14.435Z,17.47
2019-02-16T23:34:43.723Z,15.50
2019-02-16T23:37:13.019Z,17.03
2019-02-16T23:39:42.389Z,16.07
2019-02-16T23:42:11.649Z,16.00
2019-02-16T23:44:41.032Z,13.67
2019-02-16T23:47:10.326Z,15.23
2019-02-16T23:49:39.621Z,13.27
2019-02-16T23:52:08.889Z,13.53
2019-02-16T23:54:38.156Z,15.63
2019-02-16T23:57:07.565Z,12.13
2019-02-16T23:59:36.857Z,14.50
